Time;durP1;ratioP1;P1;durP2;ratioP2;P2;SDS_P1;SDS_P2;PMS_P1;PMS_P2;Temp;Humidity;BMP_temperature;BMP_pressure;BME280_temperature;BME280_humidity;BME280_pressure;Samples;Min_cycle;Max_cycle;Signal;HPM_P1;HPM_P2
2023/03/28 00:00:48;;;;;;;5.10;1.48;;;;;;;10.35;38.95;102474.44;4969490;28;20491;-63
2023/03/28 00:03:17;;;;;;;6.28;1.50;;;;;;;10.37;38.74;102475.22;4954665;28;20059;-63
2023/03/28 00:05:44;;;;;;;1.92;0.98;;;;;;;10.37;38.38;102478.75;4953810;28;20046;-63
2023/03/28 00:08:10;;;;;;;9.25;1.52;;;;;;;10.37;39.09;102477.88;4953251;28;20043;-63
2023/03/28 00:10:36;;;;;;;3.58;1.33;;;;;;;10.35;38.19;102466.41;4969274;28;20503;-63
2023/03/28 00:13:02;;;;;;;3.70;1.63;;;;;;;10.33;38.64;102476.34;4953186;28;20049;-63
2023/03/28 00:15:27;;;;;;;2.13;1.38;;;;;;;10.31;38.74;102478.22;4969569;28;20035;-63
2023/03/28 00:17:52;;;;;;;5.43;1.48;;;;;;;10.31;38.63;102475.56;4969620;28;20483;-63
2023/03/28 00:20:18;;;;;;;2.25;1.35;;;;;;;10.30;39.08;102477.34;4969273;28;20059;-63
2023/03/28 00:22:44;;;;;;;4.75;1.80;;;;;;;10.30;38.91;102473.84;4969193;28;20046;-63
2023/03/28 00:25:10;;;;;;;4.80;1.48;;;;;;;10.25;39.27;102467.84;4953119;28;20039;-63
2023/03/28 00:27:36;;;;;;;4.40;2.35;;;;;;;10.23;38.84;102469.78;4969075;28;20035;-63
2023/03/28 00:30:02;;;;;;;9.45;1.73;;;;;;;10.23;38.95;102464.41;4953051;28;20039;-63
2023/03/28 00:32:28;;;;;;;8.90;2.58;;;;;;;10.20;38.76;102476.16;4953490;29;20019;-63
2023/03/28 00:34:53;;;;;;;3.60;1.92;;;;;;;10.15;39.57;102470.22;4954117;28;20056;-63
2023/03/28 00:37:19;;;;;;;1.95;1.23;;;;;;;10.17;39.15;102480.81;4936720;29;20415;-63
2023/03/28 00:39:48;;;;;;;5.18;1.83;;;;;;;10.15;39.40;102480.91;4969085;28;20096;-63
2023/03/28 00:42:18;;;;;;;8.48;2.40;;;;;;;10.16;38.56;102473.75;4952217;28;20516;-63
2023/03/28 00:44:54;;;;;;;10.15;2.00;;;;;;;10.17;39.36;102475.47;4969483;28;20031;-64
2023/03/28 00:47:39;;;;;;;4.10;1.55;;;;;;;10.15;39.17;102478.25;4968752;28;20048;-65
2023/03/28 00:50:23;;;;;;;11.05;1.92;;;;;;;10.14;38.81;102475.63;4952830;28;20566;-63
2023/03/28 00:53:04;;;;;;;8.13;1.50;;;;;;;10.11;38.93;102475.78;4954001;28;20039;-65
2023/03/28 00:55:36;;;;;;;4.00;1.63;;;;;;;10.07;39.41;102468.88;4952975;28;20506;-62
2023/03/28 00:58:09;;;;;;;3.75;1.95;;;;;;;10.06;38.91;102472.50;4952846;28;20032;-62
2023/03/28 01:00:35;;;;;;;7.50;1.88;;;;;;;10.04;39.16;102477.06;4937878;28;20031;-63
2023/03/28 01:03:01;;;;;;;5.70;1.17;;;;;;;10.01;39.31;102475.44;4952843;28;20082;-63
2023/03/28 01:05:30;;;;;;;1.98;1.45;;;;;;;9.99;39.00;102476.47;4969090;28;20031;-63
2023/03/28 01:08:05;;;;;;;4.53;1.55;;;;;;;9.98;39.40;102486.31;4968802;28;20036;-64
2023/03/28 01:10:32;;;;;;;6.18;1.80;;;;;;;9.98;39.38;102480.97;4952212;28;20063;-61
2023/03/28 01:12:57;;;;;;;3.65;1.30;;;;;;;9.99;39.19;102481.81;4952365;28;20034;-63
2023/03/28 01:15:23;;;;;;;4.47;1.80;;;;;;;9.99;39.16;102485.38;4952357;28;20035;-61
2023/03/28 01:17:49;;;;;;;3.25;1.52;;;;;;;10.01;39.06;102477.25;4968793;28;20031;-62
2023/03/28 01:20:28;;;;;;;1.50;1.20;;;;;;;10.02;39.53;102479.84;4952197;28;20047;-61
2023/03/28 01:23:22;;;;;;;7.43;1.60;;;;;;;10.00;39.36;102479.06;4968243;28;20043;-61
2023/03/28 01:26:12;;;;;;;2.17;1.20;;;;;;;10.02;39.74;102481.66;4968353;28;20038;-62
2023/03/28 01:29:15;;;;;;;2.97;1.55;;;;;;;10.03;39.70;102476.22;4968161;28;20506;-62
2023/03/28 01:32:15;;;;;;;3.72;1.08;;;;;;;10.04;39.72;102487.78;4952289;28;20133;-62
2023/03/28 01:35:08;;;;;;;5.32;1.75;;;;;;;10.04;39.74;102487.78;4953339;28;20529;-62
2023/03/28 01:37:45;;;;;;;6.10;1.73;;;;;;;10.03;39.53;102484.25;4951883;28;20046;-62
2023/03/28 01:40:24;;;;;;;4.63;1.75;;;;;;;10.03;39.85;102472.66;4968198;28;20043;-61
2023/03/28 01:43:15;;;;;;;3.33;1.80;;;;;;;10.07;39.88;102484.94;4952097;28;20093;-61
2023/03/28 01:45:47;;;;;;;10.80;2.10;;;;;;;10.08;40.23;102475.97;4951798;28;20064;-61
2023/03/28 01:48:27;;;;;;;5.22;1.42;;;;;;;10.06;40.03;102470.69;4953005;28;20076;-62
2023/03/28 01:51:00;;;;;;;7.82;1.98;;;;;;;10.05;39.89;102476.13;4953535;28;20125;-61
2023/03/28 01:53:34;;;;;;;3.72;1.50;;;;;;;10.07;40.26;102482.25;4941480;29;20525;-62
2023/03/28 01:56:04;;;;;;;5.32;2.17;;;;;;;10.05;39.81;102468.09;4953074;28;20101;-62
2023/03/28 01:58:38;;;;;;;4.75;1.70;;;;;;;10.07;39.57;102474.22;4967990;28;20411;-61
2023/03/28 02:01:08;;;;;;;11.32;2.22;;;;;;;10.10;39.98;102474.06;4951325;28;20058;-62
2023/03/28 02:03:36;;;;;;;7.45;2.15;;;;;;;10.11;39.97;102470.41;4936416;28;20038;-62
2023/03/28 02:06:05;;;;;;;8.80;2.03;;;;;;;10.13;40.01;102465.91;4950687;28;20031;-61
2023/03/28 02:08:33;;;;;;;9.90;2.13;;;;;;;10.12;40.01;102462.31;4952378;29;20107;-62
2023/03/28 02:10:59;;;;;;;7.15;1.60;;;;;;;10.12;40.46;102456.09;4951776;28;20561;-62
2023/03/28 02:13:28;;;;;;;4.47;1.73;;;;;;;10.14;40.06;102454.22;4919811;28;20043;-61
2023/03/28 02:15:56;;;;;;;2.55;1.50;;;;;;;10.14;40.13;102448.84;4951456;28;20055;-61
2023/03/28 02:18:28;;;;;;;12.30;2.47;;;;;;;10.15;39.68;102450.59;4951436;28;20085;-61
2023/03/28 02:20:57;;;;;;;8.27;1.88;;;;;;;10.13;40.36;102457.88;4951798;28;20038;-62
2023/03/28 02:23:30;;;;;;;7.75;1.95;;;;;;;10.12;39.92;102453.41;4935606;28;20055;-62
2023/03/28 02:25:55;;;;;;;;;;;;;;;10.13;40.06;102455.19;4951912;28;20118;-62
2023/03/28 02:28:22;;;;;;;7.32;1.63;;;;;;;10.12;40.67;102450.75;4951333;28;19997;-61
2023/03/28 02:30:47;;;;;;;5.90;1.98;;;;;;;10.08;40.13;102442.00;4951306;28;20031;-62
2023/03/28 02:33:31;;;;;;;4.13;1.38;;;;;;;10.08;39.80;102438.50;4935318;28;20084;-62
2023/03/28 02:36:17;;;;;;;10.75;2.03;;;;;;;10.06;40.15;102445.72;4950986;28;20075;-64
2023/03/28 02:38:52;;;;;;;12.20;1.70;;;;;;;10.01;39.88;102435.28;4951567;28;20027;-61
2023/03/28 02:41:38;;;;;;;8.45;2.15;;;;;;;9.93;40.06;102429.50;4952524;28;20568;-62
2023/03/28 02:44:25;;;;;;;7.15;1.80;;;;;;;9.91;40.26;102440.28;4959922;28;20043;-61
2023/03/28 02:46:59;;;;;;;4.72;1.23;;;;;;;9.87;39.86;102440.53;4952445;28;20499;-61
2023/03/28 02:49:31;;;;;;;4.78;1.50;;;;;;;9.85;40.20;102442.44;4952351;28;20088;-61
2023/03/28 02:52:33;;;;;;;7.93;1.55;;;;;;;9.85;39.92;102453.16;4951203;28;20046;-61
2023/03/28 02:55:39;;;;;;;7.32;1.48;;;;;;;9.82;40.25;102453.31;4951179;28;20035;-61
2023/03/28 02:58:09;;;;;;;2.83;2.13;;;;;;;9.81;40.20;102452.44;4981684;28;20035;-62
2023/03/28 03:00:35;;;;;;;2.97;1.58;;;;;;;9.78;39.82;102447.25;4950947;28;20433;-62
2023/03/28 03:03:02;;;;;;;7.13;1.80;;;;;;;9.81;40.38;102441.75;4950884;28;20046;-61
2023/03/28 03:05:28;;;;;;;2.58;1.48;;;;;;;9.79;40.02;102438.31;4951264;28;20089;-61
2023/03/28 03:07:54;;;;;;;7.45;1.85;;;;;;;9.78;40.55;102435.69;4950800;28;20449;-61
2023/03/28 03:10:20;;;;;;;4.50;1.67;;;;;;;9.75;39.83;102447.44;4935067;28;20403;-61
2023/03/28 03:12:46;;;;;;;6.05;1.83;;;;;;;9.70;39.85;102435.25;4950729;28;20122;-62
2023/03/28 03:15:15;;;;;;;3.42;1.48;;;;;;;9.67;39.73;102443.44;4934944;28;20035;-62
2023/03/28 03:17:42;;;;;;;5.03;1.80;;;;;;;9.58;40.25;102431.44;4950807;29;20058;-61
2023/03/28 03:20:09;;;;;;;3.50;2.00;;;;;;;9.58;40.24;102443.94;4950740;28;20625;-62
2023/03/28 03:22:35;;;;;;;5.88;1.92;;;;;;;9.53;40.76;102443.31;4950588;28;20518;-61
2023/03/28 03:25:05;;;;;;;7.05;2.10;;;;;;;9.49;40.97;102445.28;4950745;28;20202;-61
2023/03/28 03:27:31;;;;;;;3.05;1.67;;;;;;;9.46;40.87;102450.84;4935072;28;20035;-62
2023/03/28 03:29:57;;;;;;;8.57;2.33;;;;;;;9.42;40.23;102443.91;4950473;28;20031;-62
2023/03/28 03:32:22;;;;;;;7.68;2.25;;;;;;;9.38;40.63;102446.84;4951130;28;20552;-62
2023/03/28 03:34:48;;;;;;;6.85;1.98;;;;;;;9.37;40.85;102448.66;4951821;28;20039;-61
2023/03/28 03:37:13;;;;;;;4.05;1.83;;;;;;;9.34;40.11;102448.81;4918395;28;20054;-62
2023/03/28 03:39:39;;;;;;;8.80;2.03;;;;;;;9.30;40.74;102455.25;4951655;28;20039;-61
2023/03/28 03:42:04;;;;;;;11.20;2.15;;;;;;;9.28;40.78;102455.34;4951563;28;20490;-61
2023/03/28 03:44:30;;;;;;;4.88;1.98;;;;;;;9.23;40.75;102460.06;4950768;28;20035;-61
2023/03/28 03:46:56;;;;;;;11.20;2.58;;;;;;;9.21;40.44;102461.09;4950191;28;20478;-61
2023/03/28 03:49:21;;;;;;;7.95;2.30;;;;;;;9.22;40.66;102460.13;4950516;28;20498;-61
2023/03/28 03:51:47;;;;;;;4.85;1.80;;;;;;;9.20;40.23;102451.34;4950222;28;20035;-62
2023/03/28 03:54:12;;;;;;;8.18;2.33;;;;;;;9.18;40.35;102461.25;4934307;28;20410;-61
2023/03/28 03:56:38;;;;;;;6.10;2.83;;;;;;;9.14;40.40;102454.31;4950754;28;20110;-62
2023/03/28 03:59:04;;;;;;;10.43;2.13;;;;;;;9.13;40.69;102456.13;4950425;28;20039;-61
2023/03/28 04:01:30;;;;;;;7.35;2.10;;;;;;;9.10;40.26;102447.44;4951375;28;20495;-62
2023/03/28 04:03:55;;;;;;;6.93;2.17;;;;;;;9.10;40.24;102450.09;4934408;28;20038;-61
2023/03/28 04:06:22;;;;;;;4.20;2.25;;;;;;;9.11;40.66;102454.47;4950301;28;20050;-61
2023/03/28 04:08:47;;;;;;;7.72;2.13;;;;;;;9.10;41.29;102455.44;4935344;28;20090;-62
2023/03/28 04:11:12;;;;;;;5.03;1.70;;;;;;;9.09;41.60;102451.03;4966446;28;20567;-62
2023/03/28 04:13:38;;;;;;;9.38;2.47;;;;;;;9.06;41.51;102451.19;4951457;28;20413;-61
2023/03/28 04:16:04;;;;;;;8.15;2.25;;;;;;;9.07;41.61;102447.59;4951742;28;20059;-62
2023/03/28 04:18:29;;;;;;;4.97;1.98;;;;;;;9.06;41.14;102451.19;4953770;28;20089;-61
2023/03/28 04:20:57;;;;;;;9.10;1.70;;;;;;;9.04;41.52;102447.75;4954002;28;20051;-61
2023/03/28 04:23:25;;;;;;;8.13;2.97;;;;;;;9.02;41.33;102449.59;4953837;29;20120;-62
2023/03/28 04:25:54;;;;;;;4.82;2.22;;;;;;;9.01;40.75;102458.59;4953526;28;20039;-61
2023/03/28 04:28:24;;;;;;;3.13;1.60;;;;;;;8.97;40.71;102443.66;4953438;28;20414;-61
2023/03/28 04:30:53;;;;;;;7.38;2.58;;;;;;;8.98;41.42;102446.25;4953936;28;20042;-61
2023/03/28 04:33:23;;;;;;;9.63;2.00;;;;;;;8.97;41.45;102443.66;4953690;28;20039;-62
2023/03/28 04:35:55;;;;;;;5.88;2.15;;;;;;;8.97;41.61;102441.84;4938385;28;20495;-63
2023/03/28 04:38:25;;;;;;;6.35;1.98;;;;;;;8.96;40.79;102433.91;4953831;28;20035;-62
2023/03/28 04:40:58;;;;;;;11.88;2.45;;;;;;;8.93;41.62;102445.63;4937653;28;20055;-61
2023/03/28 04:43:24;;;;;;;5.57;1.95;;;;;;;8.92;41.76;102443.03;4937335;28;20129;-61
2023/03/28 04:45:50;;;;;;;11.20;3.25;;;;;;;8.91;41.20;102447.50;4953297;28;20036;-61
2023/03/28 04:48:16;;;;;;;10.43;2.10;;;;;;;8.90;41.47;102450.25;4953226;28;20027;-61
2023/03/28 04:50:42;;;;;;;7.38;1.92;;;;;;;8.89;41.06;102451.19;4937449;28;20033;-62
2023/03/28 04:53:07;;;;;;;6.53;2.47;;;;;;;8.88;41.11;102457.50;4936968;28;20039;-61
2023/03/28 04:55:33;;;;;;;9.38;2.10;;;;;;;8.88;41.13;102462.84;4936833;28;20041;-61
2023/03/28 04:57:59;;;;;;;9.55;2.45;;;;;;;8.88;40.79;102452.16;4952722;28;20039;-62
2023/03/28 05:00:24;;;;;;;3.83;2.13;;;;;;;8.89;41.58;102456.53;4936703;28;20081;-62
2023/03/28 05:02:54;;;;;;;12.80;2.22;;;;;;;8.90;40.75;102459.16;4953082;28;20042;-62
2023/03/28 05:05:20;;;;;;;8.15;1.88;;;;;;;8.93;41.04;102466.13;4952617;28;20510;-61
2023/03/28 05:07:45;;;;;;;11.35;1.73;;;;;;;8.96;40.98;102455.31;4952500;28;20027;-63
2023/03/28 05:10:11;;;;;;;5.25;1.67;;;;;;;8.98;41.37;102448.06;4952616;28;20035;-64
2023/03/28 05:12:36;;;;;;;4.00;2.05;;;;;;;9.00;40.82;102456.84;4953675;28;20085;-63
2023/03/28 05:15:03;;;;;;;4.85;2.88;;;;;;;9.01;42.03;102461.25;4935703;28;20028;-62
2023/03/28 05:17:28;;;;;;;7.10;2.10;;;;;;;9.02;40.80;102465.66;4936866;28;20114;-61
2023/03/28 05:19:54;;;;;;;5.78;2.47;;;;;;;9.01;40.88;102463.94;4969959;28;20058;-61
2023/03/28 05:22:20;;;;;;;11.80;2.10;;;;;;;9.02;40.70;102465.66;4952435;28;20505;-62
2023/03/28 05:24:45;;;;;;;4.70;2.58;;;;;;;9.02;41.52;102473.66;4936520;28;20035;-62
2023/03/28 05:27:11;;;;;;;7.13;2.92;;;;;;;9.05;40.78;102473.50;4953261;28;20035;-62
2023/03/28 05:29:36;;;;;;;6.43;2.35;;;;;;;9.05;41.04;102468.16;4953787;28;20023;-62
2023/03/28 05:32:02;;;;;;;7.28;2.60;;;;;;;9.07;41.66;102468.97;4953504;28;20522;-61
2023/03/28 05:34:28;;;;;;;10.57;2.97;;;;;;;9.11;41.30;102468.72;4953442;28;20177;-62
2023/03/28 05:36:55;;;;;;;6.68;2.28;;;;;;;9.16;41.95;102477.34;4935257;28;20507;-62
2023/03/28 05:39:22;;;;;;;8.48;2.38;;;;;;;9.21;41.78;102474.47;4936559;28;20501;-62
2023/03/28 05:41:48;;;;;;;11.05;2.88;;;;;;;9.26;41.23;102470.59;4952618;28;20024;-62
2023/03/28 05:44:13;;;;;;;6.50;1.75;;;;;;;9.34;41.75;102483.56;4952242;28;20085;-62
2023/03/28 05:46:38;;;;;;;10.85;2.70;;;;;;;9.38;41.17;102475.28;4935976;28;20477;-62
2023/03/28 05:49:04;;;;;;;8.00;1.92;;;;;;;9.42;41.48;102475.13;4952078;28;20039;-62
2023/03/28 05:51:29;;;;;;;8.18;2.08;;;;;;;9.49;40.59;102477.38;4968147;28;20039;-62
2023/03/28 05:53:55;;;;;;;14.27;2.95;;;;;;;9.54;41.46;102474.47;4952459;29;20027;-62
2023/03/28 05:56:20;;;;;;;14.32;2.17;;;;;;;9.60;41.39;102480.38;4950987;28;20518;-61
2023/03/28 05:58:47;;;;;;;3.83;2.25;;;;;;;9.66;41.67;102474.69;4918917;28;20034;-62
2023/03/28 06:01:16;;;;;;;6.95;2.08;;;;;;;9.77;41.35;102477.63;4981274;28;20045;-63
2023/03/28 06:03:42;;;;;;;10.32;2.13;;;;;;;9.89;41.20;102476.97;4971688;28;20501;-62
2023/03/28 06:06:08;;;;;;;11.70;2.53;;;;;;;10.06;41.20;102467.13;4924155;28;20118;-62
2023/03/28 06:08:33;;;;;;;6.07;2.10;;;;;;;10.28;40.86;102478.41;4957607;28;20047;-62
2023/03/28 06:11:01;;;;;;;7.20;2.50;;;;;;;10.43;40.74;102470.38;4925945;29;20090;-62
2023/03/28 06:13:26;;;;;;;8.95;2.50;;;;;;;10.59;40.79;102467.66;4945000;28;20031;-62
2023/03/28 06:15:52;;;;;;;8.38;2.40;;;;;;;10.77;40.84;102461.25;4932600;28;20043;-62
2023/03/28 06:18:17;;;;;;;3.40;1.88;;;;;;;10.90;40.69;102462.22;4916716;28;20047;-62
2023/03/28 06:20:43;;;;;;;4.57;2.05;;;;;;;11.06;41.01;102467.53;4948768;28;20032;-62
2023/03/28 06:23:08;;;;;;;4.90;2.47;;;;;;;11.20;40.30;102466.69;4933475;28;20040;-61
2023/03/28 06:25:34;;;;;;;6.68;2.83;;;;;;;11.38;40.08;102468.28;4921385;28;20402;-62
2023/03/28 06:27:59;;;;;;;5.00;2.53;;;;;;;11.52;40.50;102465.59;4935526;28;20050;-62
2023/03/28 06:30:25;;;;;;;6.35;2.08;;;;;;;11.66;40.21;102470.97;4935419;28;20035;-62
2023/03/28 06:32:50;;;;;;;11.48;2.88;;;;;;;11.79;40.27;102469.28;4953021;28;20548;-62
2023/03/28 06:35:15;;;;;;;8.48;2.75;;;;;;;11.94;40.23;102468.31;4952545;28;20038;-63
2023/03/28 06:37:41;;;;;;;6.10;2.30;;;;;;;12.05;39.81;102463.13;4951382;28;20043;-63
2023/03/28 06:40:07;;;;;;;11.80;2.58;;;;;;;12.14;39.75;102464.34;4935010;28;20122;-62
2023/03/28 06:42:33;;;;;;;7.68;2.55;;;;;;;12.19;40.34;102468.47;4951219;28;20050;-62
2023/03/28 06:44:58;;;;;;;8.95;2.55;;;;;;;12.21;40.16;102471.91;4952117;28;20039;-63
2023/03/28 06:47:24;;;;;;;12.68;2.90;;;;;;;12.25;40.14;102472.56;4951451;28;20058;-62
2023/03/28 06:49:50;;;;;;;7.60;2.67;;;;;;;12.29;40.38;102463.34;4935271;28;20047;-62
2023/03/28 06:52:16;;;;;;;4.57;2.00;;;;;;;12.28;40.82;102461.63;4935082;28;20043;-62
2023/03/28 06:54:41;;;;;;;4.78;2.40;;;;;;;12.30;40.30;102464.19;4935036;28;20073;-62
2023/03/28 06:57:06;;;;;;;5.43;2.10;;;;;;;12.41;40.72;102464.38;4934994;28;20117;-62
2023/03/28 06:59:32;;;;;;;5.25;1.80;;;;;;;12.50;39.54;102475.38;4952500;28;20081;-62
2023/03/28 07:01:57;;;;;;;7.90;2.38;;;;;;;12.58;39.78;102464.97;4952280;28;20036;-64
2023/03/28 07:04:23;;;;;;;7.63;2.13;;;;;;;12.70;40.08;102466.84;4951003;28;20038;-62
2023/03/28 07:06:48;;;;;;;9.85;2.05;;;;;;;12.84;39.97;102476.69;4950652;28;20130;-63
2023/03/28 07:09:14;;;;;;;3.13;1.77;;;;;;;12.92;39.78;102474.34;4966865;28;20035;-62
2023/03/28 07:11:39;;;;;;;9.00;2.70;;;;;;;12.98;39.50;102478.44;4935377;29;20043;-63
2023/03/28 07:14:05;;;;;;;8.90;2.35;;;;;;;13.16;39.76;102471.81;4950752;28;20039;-63
2023/03/28 07:16:30;;;;;;;5.03;1.67;;;;;;;13.21;39.33;102475.91;4934820;28;20043;-62
2023/03/28 07:18:55;;;;;;;7.80;2.38;;;;;;;13.35;39.21;102475.81;4934927;28;20445;-62
2023/03/28 07:21:21;;;;;;;11.20;2.53;;;;;;;13.47;38.48;102482.19;4951735;28;20039;-62
2023/03/28 07:23:46;;;;;;;4.85;2.10;;;;;;;13.62;39.84;102483.81;4934898;29;20034;-62
2023/03/28 07:26:13;;;;;;;4.97;2.80;;;;;;;13.83;39.99;102490.38;4950758;28;20039;-63
2023/03/28 07:28:38;;;;;;;8.98;2.15;;;;;;;14.04;39.70;102482.59;4950439;28;20414;-63
2023/03/28 07:31:04;;;;;;;7.43;1.75;;;;;;;14.27;38.46;102494.34;4950656;28;20039;-63
2023/03/28 07:33:32;;;;;;;5.13;1.80;;;;;;;14.47;38.24;102485.72;4934714;28;20096;-63
2023/03/28 07:35:58;;;;;;;7.50;2.33;;;;;;;14.70;39.26;102487.56;4951092;28;20081;-63
2023/03/28 07:38:23;;;;;;;6.47;2.03;;;;;;;14.97;39.16;102492.69;4950938;28;20051;-63
2023/03/28 07:40:49;;;;;;;6.00;1.70;;;;;;;15.27;38.89;102498.44;4950476;28;20523;-63
2023/03/28 07:43:14;;;;;;;10.35;1.65;;;;;;;15.47;37.57;102495.09;4950551;28;20032;-63
2023/03/28 07:45:40;;;;;;;4.95;1.45;;;;;;;15.69;38.04;102505.91;4950542;28;20031;-63
2023/03/28 07:48:06;;;;;;;7.07;1.83;;;;;;;15.81;38.16;102504.09;4950282;28;20086;-62
2023/03/28 07:50:31;;;;;;;5.28;1.60;;;;;;;15.90;38.46;102508.78;4934977;29;20034;-63
2023/03/28 07:52:58;;;;;;;6.07;2.17;;;;;;;16.03;37.75;102503.22;4954585;28;20044;-63
2023/03/28 07:55:25;;;;;;;6.60;2.50;;;;;;;16.18;37.83;102505.56;4938318;28;20119;-64
2023/03/28 07:57:50;;;;;;;7.82;2.72;;;;;;;16.31;37.67;102502.72;4954069;28;20039;-63
2023/03/28 08:00:16;;;;;;;7.88;1.33;;;;;;;16.43;37.86;102504.44;4954932;28;20046;-63
2023/03/28 08:02:42;;;;;;;7.75;1.92;;;;;;;16.49;38.00;102503.94;4954017;28;20035;-63
2023/03/28 08:05:08;;;;;;;7.65;2.17;;;;;;;16.53;37.59;102500.00;4953828;28;20499;-62
2023/03/28 08:07:33;;;;;;;6.95;1.80;;;;;;;16.58;36.51;102500.47;4953628;28;20407;-63
2023/03/28 08:09:59;;;;;;;9.77;1.83;;;;;;;16.65;37.30;102490.00;4937599;28;20143;-63
2023/03/28 08:12:26;;;;;;;8.75;2.35;;;;;;;16.78;37.54;102490.69;4953640;28;20031;-63
2023/03/28 08:14:51;;;;;;;6.15;2.15;;;;;;;16.89;36.83;102493.34;4953908;29;20043;-63
2023/03/28 08:17:17;;;;;;;4.80;1.88;;;;;;;17.03;37.50;102484.09;4954462;28;20027;-63
2023/03/28 08:19:43;;;;;;;4.25;1.50;;;;;;;17.14;36.51;102486.75;4954657;28;20039;-64
2023/03/28 08:22:10;;;;;;;5.70;1.80;;;;;;;17.27;36.32;102492.81;4953685;28;20031;-63
2023/03/28 08:24:36;;;;;;;9.48;2.80;;;;;;;17.20;37.68;102497.03;4953652;28;20038;-63
2023/03/28 08:27:02;;;;;;;8.50;1.77;;;;;;;17.16;37.54;102492.88;4954439;28;20031;-63
2023/03/28 08:29:28;;;;;;;3.80;2.20;;;;;;;17.26;36.57;102493.78;4937790;29;20027;-63
2023/03/28 08:31:53;;;;;;;4.68;1.20;;;;;;;17.39;37.06;102495.31;4953212;28;20038;-63
2023/03/28 08:34:18;;;;;;;4.47;1.98;;;;;;;17.45;36.83;102493.91;4953080;28;20031;-63
2023/03/28 08:36:44;;;;;;;3.97;1.52;;;;;;;17.68;36.53;102492.81;4936933;28;20078;-63
2023/03/28 08:39:09;;;;;;;4.60;1.20;;;;;;;17.93;36.26;102495.09;4937214;28;20519;-63
2023/03/28 08:42:12;;;;;;;6.28;1.77;;;;;;;18.09;36.10;102489.13;4953304;29;20089;-63
2023/03/28 08:45:07;;;;;;;4.57;1.30;;;;;;;18.03;36.14;102487.00;4993800;28;20054;-63
2023/03/28 08:47:52;;;;;;;7.80;1.60;;;;;;;17.93;35.10;102481.53;4953008;28;20495;-63
2023/03/28 08:50:42;;;;;;;8.10;1.23;;;;;;;17.90;36.84;102484.50;4953148;28;20042;-63
2023/03/28 08:53:16;;;;;;;6.70;1.48;;;;;;;17.84;35.08;102481.47;4936804;28;20522;-63
2023/03/28 08:55:41;;;;;;;1.98;1.27;;;;;;;17.82;36.14;102484.34;4952891;28;20035;-63
2023/03/28 08:58:18;;;;;;;4.60;1.80;;;;;;;17.75;35.42;102479.59;4952736;28;20445;-63
2023/03/28 09:00:45;;;;;;;2.20;1.23;;;;;;;17.57;35.86;102479.34;4952779;28;20027;-63
2023/03/28 09:03:13;;;;;;;2.90;1.42;;;;;;;17.53;35.86;102482.44;4936167;28;20031;-63
2023/03/28 09:06:00;;;;;;;6.22;1.98;;;;;;;17.38;35.22;102473.78;4953058;29;20574;-63
2023/03/28 09:08:32;;;;;;;3.72;1.27;;;;;;;17.35;35.18;102476.75;4952562;29;20054;-63
2023/03/28 09:11:25;;;;;;;12.93;1.55;;;;;;;17.31;34.37;102462.63;4953750;28;20058;-63
2023/03/28 09:13:50;;;;;;;;;;;;;;;17.38;34.62;102471.94;4952828;28;20620;-63
2023/03/28 09:16:40;;;;;;;3.63;1.40;;;;;;;17.38;35.09;102462.94;4953572;28;19968;-63
2023/03/28 09:19:27;;;;;;;7.45;2.00;;;;;;;17.41;34.29;102451.84;4953643;28;20035;-63
2023/03/28 09:22:30;;;;;;;3.25;1.08;;;;;;;17.46;35.34;102460.44;4952404;28;20036;-63
2023/03/28 09:25:02;;;;;;;8.05;1.48;;;;;;;17.41;34.78;102458.13;4953546;28;20027;-63
2023/03/28 09:27:47;;;;;;;7.67;1.20;;;;;;;17.44;34.53;102460.56;4953441;28;20505;-63
2023/03/28 09:30:19;;;;;;;7.68;1.83;;;;;;;17.48;34.31;102455.72;4952373;28;20118;-63
2023/03/28 09:32:44;;;;;;;7.00;1.45;;;;;;;17.49;34.40;102443.91;4952711;29;20050;-63
2023/03/28 09:35:15;;;;;;;2.83;1.10;;;;;;;17.58;34.56;102443.13;4952428;28;20039;-63
2023/03/28 09:37:42;;;;;;;7.70;1.45;;;;;;;17.51;34.14;102452.75;4952003;28;20051;-63
2023/03/28 09:40:22;;;;;;;5.00;1.30;;;;;;;17.51;34.26;102439.19;4936487;28;20049;-63
2023/03/28 09:43:00;;;;;;;4.22;1.48;;;;;;;17.51;34.50;102436.50;4952144;28;20031;-64
2023/03/28 09:45:34;;;;;;;4.10;1.10;;;;;;;17.68;33.81;102438.63;4951918;28;20039;-63
2023/03/28 09:48:00;;;;;;;1.77;0.93;;;;;;;18.00;33.78;102436.63;4951763;28;20038;-63
2023/03/28 09:50:26;;;;;;;6.03;0.93;;;;;;;18.45;33.09;102431.53;4952403;29;20027;-64
2023/03/28 09:52:52;;;;;;;3.78;1.15;;;;;;;18.65;33.02;102432.44;4953663;28;20039;-62
2023/03/28 09:55:20;;;;;;;5.15;1.05;;;;;;;18.55;32.46;102429.75;4951914;28;20088;-62
2023/03/28 09:58:13;;;;;;;4.43;1.02;;;;;;;18.54;32.44;102421.72;4951933;28;20043;-62
2023/03/28 10:00:40;;;;;;;;;;;;;;;18.58;32.41;102428.59;4938679;28;20043;-62
2023/03/28 10:03:07;;;;;;;2.42;1.13;;;;;;;18.76;32.61;102417.91;4951759;28;20373;-62
2023/03/28 10:05:38;;;;;;;8.38;1.83;;;;;;;18.83;32.46;102417.19;4936384;29;20040;-62
2023/03/28 10:08:23;;;;;;;3.33;0.85;;;;;;;18.89;32.94;102405.75;4951738;28;20089;-62
2023/03/28 10:11:00;;;;;;;4.50;1.00;;;;;;;18.85;32.41;102406.16;4953136;28;20118;-63
2023/03/28 10:13:32;;;;;;;1.98;1.33;;;;;;;18.78;32.72;102403.19;4946486;28;20048;-62
2023/03/28 10:15:58;;;;;;;3.15;0.90;;;;;;;18.69;32.29;102398.59;4932091;29;20032;-62
2023/03/28 10:18:26;;;;;;;4.50;1.98;;;;;;;18.69;32.29;102387.75;4932498;28;20036;-61
2023/03/28 10:20:52;;;;;;;5.15;1.52;;;;;;;18.67;31.67;102391.59;4916877;29;20379;-62
2023/03/28 10:23:20;;;;;;;4.57;1.00;;;;;;;18.74;31.82;102388.16;4932572;28;20046;-61
2023/03/28 10:25:50;;;;;;;2.67;0.95;;;;;;;19.00;32.04;102392.00;4932342;29;20082;-62
2023/03/28 10:28:22;;;;;;;5.45;1.40;;;;;;;19.31;31.68;102397.22;4932203;29;20043;-62
2023/03/28 10:30:56;;;;;;;1.90;1.10;;;;;;;19.50;31.75;102389.03;4916606;29;20110;-62
2023/03/28 10:33:25;;;;;;;3.78;1.20;;;;;;;19.57;31.60;102379.28;4932254;29;20115;-62
2023/03/28 10:36:03;;;;;;;3.45;0.90;;;;;;;19.49;31.06;102371.00;4948493;28;20039;-62
2023/03/28 10:38:37;;;;;;;4.18;0.73;;;;;;;19.39;31.42;102371.06;4916283;29;20047;-62
2023/03/28 10:41:10;;;;;;;1.77;0.60;;;;;;;19.39;31.60;102359.31;4916384;29;20040;-62
2023/03/28 10:43:40;;;;;;;1.33;0.70;;;;;;;19.68;30.71;102362.78;4932104;29;20032;-63
2023/03/28 10:46:13;;;;;;;2.80;0.68;;;;;;;20.16;30.35;102352.44;4931995;29;20050;-62
2023/03/28 10:48:40;;;;;;;5.35;1.35;;;;;;;20.90;29.78;102343.94;4931902;29;20066;-62
2023/03/28 10:51:09;;;;;;;2.60;0.75;;;;;;;21.25;28.93;102343.84;4916199;28;20566;-63
2023/03/28 10:53:48;;;;;;;3.47;0.70;;;;;;;21.39;29.22;102334.22;4916720;29;20085;-62
2023/03/28 10:56:37;;;;;;;5.38;0.90;;;;;;;22.31;28.74;102336.91;4933209;28;20071;-63
2023/03/28 10:59:20;;;;;;;3.03;0.55;;;;;;;22.93;28.11;102333.53;4932039;29;20036;-63
2023/03/28 11:01:53;;;;;;;4.00;0.77;;;;;;;22.94;27.15;102318.88;4931979;29;20411;-62
2023/03/28 11:04:34;;;;;;;2.63;0.47;;;;;;;22.75;28.23;102315.63;4933180;28;20111;-63
2023/03/28 11:07:24;;;;;;;2.08;0.75;;;;;;;23.44;27.77;102315.84;4940509;28;20050;-63
2023/03/28 11:10:21;;;;;;;2.58;0.77;;;;;;;23.52;27.77;102307.59;4952056;28;20049;-63
2023/03/28 11:13:43;;;;;;;2.28;0.70;;;;;;;23.64;26.90;102300.72;4950783;28;20407;-63
2023/03/28 11:16:11;;;;;;;3.22;0.60;;;;;;;24.33;27.27;102301.66;4969025;28;20546;-64
2023/03/28 11:18:56;;;;;;;1.67;0.70;;;;;;;24.44;26.39;102298.50;4971938;28;20193;-63
2023/03/28 11:21:30;;;;;;;1.60;0.52;;;;;;;25.33;26.14;102283.88;4953405;28;20506;-63
2023/03/28 11:24:01;;;;;;;8.73;0.80;;;;;;;25.94;25.93;102294.41;4969708;28;20146;-64
2023/03/28 11:26:32;;;;;;;5.85;1.00;;;;;;;26.62;25.13;102279.25;4971469;28;20057;-63
2023/03/28 11:29:26;;;;;;;4.80;0.90;;;;;;;27.02;25.15;102272.16;4972463;28;20081;-65
2023/03/28 11:32:16;;;;;;;1.52;0.70;;;;;;;27.40;24.95;102267.94;4972273;28;20038;-64
2023/03/28 11:34:47;;;;;;;3.38;1.13;;;;;;;27.41;25.27;102264.16;4956236;28;20031;-64
2023/03/28 11:37:26;;;;;;;2.15;1.10;;;;;;;27.25;25.58;102256.19;4972123;28;20051;-64
2023/03/28 11:39:55;;;;;;;2.67;0.95;;;;;;;27.14;24.80;102254.88;4956177;28;20031;-65
2023/03/28 11:42:40;;;;;;;2.95;0.90;;;;;;;26.73;25.48;102256.69;4972079;28;20443;-64